createdAt,value
2022-08-12T00:02:05.036Z,99.90
2022-08-12T00:07:27.978Z,99.90
2022-08-12T00:12:49.977Z,99.90
2022-08-12T00:18:13.075Z,99.90
2022-08-12T00:23:34.658Z,99.90
2022-08-12T00:28:56.208Z,99.90
2022-08-12T00:34:17.941Z,99.90
2022-08-12T00:39:39.783Z,99.90
2022-08-12T00:44:45.135Z,99.90
2022-08-12T00:49:51.625Z,99.90
2022-08-12T00:55:00.425Z,99.90
2022-08-12T01:00:11.315Z,99.90
2022-08-12T01:05:35.650Z,99.90
2022-08-12T01:10:59.780Z,99.90
2022-08-12T01:16:07.864Z,99.90
2022-08-12T01:21:22.144Z,99.90
2022-08-12T01:26:26.208Z,99.90
2022-08-12T01:31:30.213Z,99.90
2022-08-12T01:36:56.461Z,99.90
2022-08-12T01:42:11.570Z,99.90
2022-08-12T01:47:32.946Z,99.90
2022-08-12T01:52:53.495Z,99.90
2022-08-12T01:58:18.365Z,99.90
2022-08-12T02:04:00.654Z,99.90
2022-08-12T02:09:23.816Z,99.90
2022-08-12T02:15:06.525Z,99.90
2022-08-12T02:20:34.279Z,99.90
2022-08-12T02:25:57.448Z,99.90
2022-08-12T02:31:05.688Z,99.90
2022-08-12T02:36:08.932Z,99.90
2022-08-12T02:41:13.557Z,99.90
2022-08-12T02:46:39.218Z,99.90
2022-08-12T02:51:45.448Z,99.90
2022-08-12T02:56:50.962Z,99.90
2022-08-12T03:02:04.816Z,99.90
2022-08-12T03:07:10.439Z,99.90
2022-08-12T03:12:19.997Z,99.90
2022-08-12T03:17:37.017Z,99.90
2022-08-12T03:22:40.962Z,99.90
2022-08-12T03:27:50.004Z,99.90
2022-08-12T03:32:54.267Z,99.90
2022-08-12T03:38:02.790Z,99.90
2022-08-12T03:43:27.805Z,99.90
2022-08-12T03:48:49.240Z,99.90
2022-08-12T03:54:11.609Z,99.90
2022-08-12T03:59:33.369Z,99.90
2022-08-12T04:04:36.299Z,99.90
2022-08-12T04:09:40.957Z,99.90
2022-08-12T04:14:43.789Z,99.90
2022-08-12T04:19:48.760Z,99.90
2022-08-12T04:24:54.213Z,99.90
2022-08-12T04:30:21.225Z,99.90
2022-08-12T04:35:21.867Z,99.90
2022-08-12T04:40:28.256Z,99.90
2022-08-12T04:45:33.631Z,99.90
2022-08-12T04:50:37.307Z,99.90
2022-08-12T04:55:42.533Z,99.90
2022-08-12T05:00:45.298Z,99.90
2022-08-12T05:05:49.117Z,99.90
2022-08-12T05:10:52.026Z,99.90
2022-08-12T05:16:05.673Z,99.90
2022-08-12T05:21:12.078Z,99.90
2022-08-12T05:26:15.359Z,99.90
2022-08-12T05:31:46.155Z,99.90
2022-08-12T05:36:45.026Z,99.90
2022-08-12T05:41:47.892Z,99.90
2022-08-12T05:46:50.645Z,99.90
2022-08-12T05:51:53.488Z,99.90
2022-08-12T05:56:56.358Z,99.90
2022-08-12T06:02:10.591Z,99.90
2022-08-12T06:08:02.179Z,99.90
2022-08-12T06:12:39.237Z,99.90
2022-08-12T06:17:42.323Z,99.90
2022-08-12T06:22:48.134Z,99.90
2022-08-12T06:28:06.294Z,99.90
2022-08-12T06:33:22.370Z,99.90
2022-08-12T06:38:27.788Z,99.90
2022-08-12T06:43:30.800Z,99.90
2022-08-12T06:48:59.461Z,99.90
2022-08-12T06:54:03.050Z,99.90
2022-08-12T06:59:06.175Z,99.90
2022-08-12T07:04:33.688Z,99.90
2022-08-12T07:10:01.370Z,99.90
2022-08-12T07:14:55.199Z,99.90
2022-08-12T07:20:03.480Z,99.90
2022-08-12T07:25:26.260Z,99.90
2022-08-12T07:30:30.953Z,99.90
2022-08-12T07:35:34.844Z,99.90
2022-08-12T07:40:37.724Z,99.90
2022-08-12T07:45:40.938Z,99.90
2022-08-12T07:50:44.012Z,99.90
2022-08-12T07:55:47.118Z,99.90
2022-08-12T08:00:50.299Z,99.90
2022-08-12T08:05:53.495Z,99.90
2022-08-12T08:11:17.907Z,99.90
2022-08-12T08:16:20.923Z,99.90
2022-08-12T08:21:27.591Z,99.90
2022-08-12T08:26:30.511Z,99.90
2022-08-12T08:31:37.539Z,99.90
2022-08-12T08:36:41.581Z,99.90
2022-08-12T08:42:16.938Z,99.90
2022-08-12T08:47:23.618Z,99.90
2022-08-12T08:52:39.289Z,99.90
2022-08-12T08:57:49.688Z,99.90
2022-08-12T09:02:59.206Z,99.90
2022-08-12T09:08:11.986Z,99.90
2022-08-12T09:14:10.505Z,99.90
2022-08-12T09:18:52.432Z,99.90
2022-08-12T09:24:07.563Z,99.90
2022-08-12T09:29:11.768Z,99.90
2022-08-12T09:34:26.427Z,99.90
2022-08-12T09:40:01.469Z,99.90
2022-08-12T09:45:18.867Z,99.90
2022-08-12T09:50:26.049Z,99.90
2022-08-12T09:56:06.574Z,99.90
2022-08-12T10:00:53.084Z,99.90
2022-08-12T10:06:27.410Z,99.90
2022-08-12T10:12:05.606Z,99.90
2022-08-12T10:17:01.554Z,99.90
2022-08-12T10:22:17.262Z,99.90
2022-08-12T10:28:04.941Z,99.90
2022-08-12T10:33:19.086Z,99.90
2022-08-12T10:38:34.602Z,99.90
2022-08-12T10:43:55.712Z,99.90
2022-08-12T10:49:06.701Z,99.90
2022-08-12T10:54:27.643Z,99.90
2022-08-12T11:00:29.713Z,99.90
2022-08-12T11:07:02.536Z,99.90
2022-08-12T11:10:26.597Z,99.90
2022-08-12T11:16:04.147Z,99.90
2022-08-12T11:20:57.823Z,99.90
2022-08-12T11:26:05.622Z,99.90
2022-08-12T11:31:14.132Z,99.90
2022-08-12T11:36:17.572Z,99.90
2022-08-12T11:41:31.042Z,99.90
2022-08-12T11:46:42.366Z,96.90
2022-08-12T11:51:45.231Z,96.00
2022-08-12T11:57:02.970Z,93.00
2022-08-12T12:02:25.439Z,86.90
2022-08-12T12:08:36.187Z,87.70
2022-08-12T12:12:51.801Z,80.20
2022-08-12T12:17:55.085Z,88.40
2022-08-12T12:22:58.865Z,85.40
2022-08-12T12:28:05.365Z,83.10
2022-08-12T12:33:10.932Z,83.10
2022-08-12T12:38:25.217Z,83.00
2022-08-12T12:43:42.922Z,81.10
2022-08-12T12:48:47.715Z,84.00
2022-08-12T12:54:06.647Z,92.40
2022-08-12T12:59:55.257Z,95.40
2022-08-12T13:04:37.209Z,88.40
2022-08-12T13:09:40.619Z,94.40
2022-08-12T13:14:49.471Z,94.70
2022-08-12T13:19:54.889Z,85.60
2022-08-12T13:25:00.034Z,84.60
2022-08-12T13:30:12.741Z,85.20
2022-08-12T13:35:19.970Z,82.50
2022-08-12T13:40:40.184Z,77.80
2022-08-12T13:45:43.893Z,80.30
2022-08-12T13:50:47.704Z,72.40
2022-08-12T13:55:59.657Z,74.80
2022-08-12T14:01:06.452Z,75.00
2022-08-12T14:06:15.459Z,79.10
2022-08-12T14:11:25.105Z,79.20
2022-08-12T14:16:47.032Z,81.20
2022-08-12T14:21:59.229Z,77.70
2022-08-12T14:27:09.240Z,78.50
2022-08-12T14:32:16.628Z,77.40
2022-08-12T14:37:57.363Z,78.50
2022-08-12T14:42:43.138Z,75.30
2022-08-12T14:47:58.324Z,68.40
2022-08-12T14:58:25.428Z,75.70
2022-08-12T15:03:46.634Z,76.90
2022-08-12T15:08:53.067Z,80.00
2022-08-12T15:13:56.127Z,81.80
2022-08-12T15:18:59.193Z,79.10
2022-08-12T15:24:03.844Z,87.00
2022-08-12T15:29:10.451Z,85.10
2022-08-12T15:34:14.386Z,84.80
2022-08-12T15:39:18.231Z,90.20
2022-08-12T15:44:38.191Z,90.50
2022-08-12T15:50:00.694Z,86.80
2022-08-12T15:55:05.982Z,87.80
2022-08-12T16:00:31.564Z,90.40
2022-08-12T16:06:16.849Z,90.40
2022-08-12T16:11:16.089Z,92.20
2022-08-12T16:16:24.533Z,90.90
2022-08-12T16:21:51.991Z,91.30
2022-08-12T16:26:54.305Z,92.10
2022-08-12T16:31:59.025Z,94.20
2022-08-12T16:37:04.773Z,94.00
2022-08-12T16:42:10.232Z,94.30
2022-08-12T16:47:14.577Z,94.40
2022-08-12T16:52:18.693Z,94.90
2022-08-12T16:57:42.988Z,95.50
2022-08-12T17:02:50.691Z,98.20
2022-08-12T17:08:01.362Z,99.90
2022-08-12T17:13:10.258Z,99.90
2022-08-12T17:18:39.409Z,99.90
2022-08-12T17:23:52.813Z,99.90
2022-08-12T17:29:00.300Z,99.90
2022-08-12T17:34:07.275Z,99.90
2022-08-12T17:39:21.509Z,99.90
2022-08-12T17:44:26.514Z,99.90
2022-08-12T17:50:02.945Z,99.90
2022-08-12T17:54:59.742Z,99.90
2022-08-12T18:00:05.521Z,99.90
2022-08-12T18:05:10.017Z,99.90
2022-08-12T18:10:35.972Z,99.90
2022-08-12T18:16:06.101Z,99.90
2022-08-12T18:21:05.117Z,99.90
2022-08-12T18:26:26.721Z,99.90
2022-08-12T18:31:43.780Z,99.90
2022-08-12T18:36:54.060Z,99.90
2022-08-12T18:41:59.751Z,99.90
2022-08-12T18:47:05.782Z,99.90
2022-08-12T18:52:12.310Z,99.90
2022-08-12T18:57:19.770Z,99.90
2022-08-12T19:02:40.929Z,99.90
2022-08-12T19:08:00.664Z,99.90
2022-08-12T19:13:25.246Z,99.90
2022-08-12T19:18:39.873Z,99.90
2022-08-12T19:23:43.571Z,99.90
2022-08-12T19:28:47.990Z,99.90
2022-08-12T19:34:21.556Z,99.90
2022-08-12T19:39:15.390Z,99.90
2022-08-12T19:44:27.377Z,99.90
2022-08-12T19:49:30.429Z,99.90
2022-08-12T19:54:34.728Z,99.90
2022-08-12T19:59:43.157Z,99.90
2022-08-12T20:06:04.820Z,99.90
2022-08-12T20:10:35.590Z,99.90
2022-08-12T20:15:44.455Z,99.90
2022-08-12T20:20:48.202Z,99.90
2022-08-12T20:25:53.482Z,99.90
2022-08-12T20:31:01.829Z,99.90
2022-08-12T20:36:13.734Z,99.90
2022-08-12T20:41:32.565Z,99.90
2022-08-12T20:46:35.659Z,99.90
2022-08-12T20:51:50.990Z,99.90
2022-08-12T20:56:58.297Z,99.90
2022-08-12T21:02:04.649Z,99.90
2022-08-12T21:07:10.432Z,99.90
2022-08-12T21:12:27.957Z,99.90
2022-08-12T21:18:08.858Z,99.90
2022-08-12T21:22:57.398Z,99.90
2022-08-12T21:28:01.374Z,99.90
2022-08-12T21:33:05.077Z,99.90
2022-08-12T21:38:17.391Z,99.90
2022-08-12T21:43:21.850Z,99.90
2022-08-12T21:48:25.707Z,99.90
2022-08-12T21:53:31.765Z,99.90
2022-08-12T21:58:51.759Z,99.90
2022-08-12T22:04:13.060Z,99.90
2022-08-12T22:09:17.643Z,99.90
2022-08-12T22:14:23.712Z,99.90
2022-08-12T22:19:27.229Z,99.90
2022-08-12T22:24:30.905Z,99.90
2022-08-12T22:29:52.194Z,99.90
2022-08-12T22:35:24.227Z,99.90
2022-08-12T22:40:32.378Z,99.90
2022-08-12T22:45:56.561Z,99.90
2022-08-12T22:51:01.929Z,99.90
2022-08-12T22:56:09.571Z,99.90
2022-08-12T23:01:21.148Z,99.90
2022-08-12T23:06:25.837Z,99.90
2022-08-12T23:11:40.506Z,99.90
2022-08-12T23:16:45.493Z,99.90
2022-08-12T23:22:06.331Z,99.90
2022-08-12T23:27:50.119Z,99.90
2022-08-12T23:33:00.085Z,99.90
2022-08-12T23:38:03.348Z,99.90
2022-08-12T23:43:06.157Z,99.90
2022-08-12T23:48:09.117Z,99.90
2022-08-12T23:53:32.812Z,99.90
2022-08-12T23:58:35.723Z,99.90
